Flight Track Log - Related Links

Times and Time Zones

All times are in EDT time to prevent confusion due to time zone crossing. See the AAL2 flight status page for this flight to view local times or setup timezone preferences in your user account.

Time Position Orientation Groundspeed Altitude Reporting Facility
EDT Latitude Longitude Course Direction KTS MPH feet Rate Location/Type
Tue 12:08:35 PM 33.9333 -118.4500 253° West 179 206 1,900  Level Southern California TRACON
Tue 12:09:23 PM 33.9181 -118.5090 209° Southwest 225 259 3,500 2,556 Climbing Los Angeles Center
Tue 12:10:23 PM 33.8694 -118.5410 86° East 222 255 6,500 2,800 Climbing Los Angeles Center
Tue 12:11:23 PM 33.8731 -118.4680 26° Northeast 136 157 9,100 2,200 Climbing Los Angeles Center
Tue 12:12:23 PM 33.9364 -118.4300 55° Northeast 193 222 10,900 1,650 Climbing Los Angeles Center
Tue 12:13:23 PM 33.9925 -118.3330 56° Northeast 269 310 12,400 2,050 Climbing Los Angeles Center
Tue 12:14:23 PM 34.0528 -118.2250 54° Northeast 330 380 15,000 2,550 Climbing Los Angeles Center
Tue 12:15:23 PM 34.1194 -118.1140 56° Northeast 380 437 17,500 2,150 Climbing Los Angeles Center
Tue 12:16:23 PM 34.1708 -118.0220 56° Northeast 399 459 19,300 2,150 Climbing Los Angeles Center
Tue 12:17:23 PM 34.2503 -117.8780 57° Northeast 417 480 21,800 2,250 Climbing Los Angeles Center
Tue 12:18:23 PM 34.3167 -117.7560 52° Northeast 427 491 23,800 2,000 Climbing Los Angeles Center
Tue 12:19:23 PM 34.3956 -117.6320 50° Northeast 445 512 25,800 1,850 Climbing Los Angeles Center
Tue 12:20:23 PM 34.4783 -117.5120 50° Northeast 455 524 27,500 1,550 Climbing Los Angeles Center
Tue 12:21:23 PM 34.5653 -117.3870 50° Northeast 470 541 28,900 1,400 Climbing Los Angeles Center
Tue 12:22:23 PM 34.6522 -117.2600 50° Northeast 475 547 30,300 1,700 Climbing Los Angeles Center
Tue 12:23:23 PM 34.7408 -117.1320 50° Northeast 485 558 32,300 1,700 Climbing Los Angeles Center
Tue 12:24:23 PM 34.8294 -117.0040 50° Northeast 485 558 33,700 1,400 Climbing Los Angeles Center
Tue 12:25:23 PM 34.9181 -116.8760 49° Northeast 490 564 35,100 1,350 Climbing Los Angeles Center
Tue 12:26:23 PM 35.0064 -116.7500 50° Northeast 490 564 36,400 1,100 Climbing Los Angeles Center
Tue 12:27:23 PM 35.0947 -116.6190 51° Northeast 490 564 37,300 800 Climbing Los Angeles Center
Tue 12:28:23 PM 35.1828 -116.4870 49° Northeast 495 570 38,000 750 Climbing Los Angeles Center
Tue 12:29:23 PM 35.2728 -116.3580 50° Northeast 495 570 38,800 450 Climbing Los Angeles Center
Tue 12:30:23 PM 35.3628 -116.2280 50° Northeast 495 570 38,900 50 Climbing Los Angeles Center
Tue 12:31:23 PM 35.4525 -116.0960 50° Northeast 495 570 38,900  Level Los Angeles Center
Tue 12:32:23 PM 35.5400 -115.9680 49° Northeast 495 570 38,900  Level Los Angeles Center
Tue 12:33:23 PM 35.6400 -115.8270 51° Northeast 490 564 38,900  Level Los Angeles Center
Tue 12:34:23 PM 35.7086 -115.7220 49° Northeast 490 564 38,900  Level Los Angeles Center
Tue 12:35:23 PM 35.8164 -115.5680 52° Northeast 495 570 38,900  Level Los Angeles Center
Tue 12:36:23 PM 35.9033 -115.4320 51° Northeast 495 570 38,900 50 Level Los Angeles Center
Tue 12:37:23 PM 35.9922 -115.2970 53° Northeast 495 570 39,000 50 Climbing Los Angeles Center
Tue 12:38:23 PM 36.0767 -115.1600 55° Northeast 495 570 39,000 -50 Level Los Angeles Center
Tue 12:39:23 PM 36.1589 -115.0150 55° Northeast 500 575 38,900 -50 Descending Los Angeles Center
Tue 12:40:23 PM 36.2411 -114.8700 55° Northeast 505 581 38,900  Level Los Angeles Center
Tue 12:41:23 PM 36.3208 -114.7270 55° Northeast 505 581 38,900 45 Level Los Angeles Center
Tue 12:42:35 PM 36.4025 -114.5810 56° Northeast 505 581 39,000  Climbing Los Angeles Center
Tue 12:43:35 PM 36.4981 -114.4040 55° Northeast 510 587 38,900 -50 Descending Los Angeles Center
Tue 12:44:35 PM 36.5794 -114.2570 53° Northeast 515 593 38,900  Level Los Angeles Center
Tue 12:45:35 PM 36.6567 -114.1280 57° Northeast 515 593 38,900  Level Los Angeles Center
Tue 12:46:35 PM 36.7356 -113.9760 56° Northeast 515 593 38,900  Level Los Angeles Center
Tue 12:47:35 PM 36.8242 -113.8100 57° Northeast 520 598 38,900  Level Los Angeles Center
Tue 12:48:35 PM 36.9044 -113.6550 57° Northeast 520 598 38,900  Level Los Angeles Center
Tue 12:50:10 PM 37.0297 -113.4130 56° Northeast 517 595 38,900  Level Salt Lake Center
Tue 12:51:10 PM 37.1125 -113.2580 56° Northeast 517 595 38,900  Level Salt Lake Center
Tue 12:52:10 PM 37.1950 -113.1020 56° Northeast 517 595 38,900  Level Salt Lake Center
Tue 12:53:10 PM 37.2689 -112.9660 58° Northeast 522 601 38,900  Level Salt Lake Center
Tue 12:54:10 PM 37.3467 -112.8120 57° Northeast 522 601 38,900  Level Salt Lake Center
Tue 12:55:10 PM 37.4267 -112.6580 55° Northeast 522 601 38,900  Level Salt Lake Center
Tue 12:56:10 PM 37.5083 -112.5090 57° Northeast 517 595 38,900  Level Salt Lake Center
Tue 12:57:10 PM 37.5878 -112.3540 57° Northeast 517 595 38,900 50 Level Salt Lake Center
Tue 12:58:10 PM 37.6650 -112.2060 58° Northeast 517 595 39,000  Climbing Salt Lake Center
Tue 12:59:10 PM 37.7419 -112.0530 57° Northeast 517 595 38,900 -50 Descending Salt Lake Center
Tue 01:00:10 PM 37.8206 -111.8990 57° Northeast 517 595 38,900 50 Level Salt Lake Center
Tue 01:01:10 PM 37.8950 -111.7510 57° Northeast 517 595 39,000  Climbing Salt Lake Center
Tue 01:02:10 PM 37.9714 -111.6020 57° Northeast 517 595 38,900  Descending Salt Lake Center
Tue 01:03:10 PM 38.0558 -111.4350 57° Northeast 517 595 39,000  Climbing Salt Lake Center
Tue 01:04:10 PM 38.1319 -111.2830 57° Northeast 512 589 38,900  Descending Salt Lake Center
Tue 01:05:10 PM 38.2097 -111.1300 58° Northeast 518 596 39,000  Climbing Salt Lake Center
Tue 01:06:10 PM 38.2850 -110.9740 57° Northeast 518 596 38,900 -50 Descending Salt Lake Center
Tue 01:07:10 PM 38.3625 -110.8190 58° Northeast 518 596 38,900  Level Salt Lake Center
Tue 01:08:10 PM 38.4375 -110.6680 59° Northeast 518 596 38,900 50 Level Salt Lake Center
Tue 01:09:10 PM 38.5042 -110.5250 59° Northeast 518 596 39,000 33 Climbing Salt Lake Center
Tue 01:11:14 PM 38.6569 -110.2010 59° Northeast 543 625 39,000  Level Denver Center
Tue 01:12:15 PM 38.7397 -110.0240 59° Northeast 520 598 39,000  Level Denver Center
Tue 01:13:16 PM 38.8133 -109.8650 59° Northeast 520 598 39,000 -50 Level Denver Center
Tue 01:14:15 PM 38.8867 -109.7060 59° Northeast 520 598 38,900  Descending Denver Center
Tue 01:15:15 PM 38.9556 -109.5600 60° Northeast 520 598 39,000 50 Climbing Denver Center
Tue 01:16:15 PM 39.0350 -109.3840 59° Northeast 520 598 39,000 -50 Level Denver Center
Tue 01:17:14 PM 39.1100 -109.2210 60° Northeast 526 605 38,900  Descending Denver Center
Tue 01:18:16 PM 39.1761 -109.0740 59° Northeast 526 605 39,000 49 Climbing Denver Center
Tue 01:19:16 PM 39.2506 -108.9110 60° Northeast 521 600 39,000 -50 Level Denver Center
Tue 01:20:16 PM 39.3314 -108.7280 60° Northeast 521 600 38,900  Descending Denver Center
Tue 01:21:14 PM 39.4033 -108.5670 60° Northeast 521 600 39,000  Climbing Denver Center
Tue 01:22:16 PM 39.4686 -108.4180 60° Northeast 528 608 38,900 -49 Descending Denver Center
Tue 01:23:17 PM 39.5486 -108.2370 60° Northeast 523 602 38,900  Level Denver Center
Tue 01:24:15 PM 39.6200 -108.0740 61° Northeast 518 596 38,900 50 Level Denver Center
Tue 01:25:16 PM 39.6844 -107.9250 60° Northeast 518 596 39,000 50 Climbing Denver Center
Tue 01:26:16 PM 39.7639 -107.7430 61° Northeast 527 606 39,000 -50 Level Denver Center
Tue 01:27:17 PM 39.8342 -107.5760 60° Northeast 521 600 38,900 -50 Descending Denver Center
Tue 01:28:16 PM 39.9067 -107.4100 61° Northeast 521 600 38,900 50 Level Denver Center
Tue 01:29:16 PM 39.9703 -107.2620 60° Northeast 518 596 39,000 51 Climbing Denver Center
Tue 01:30:14 PM 40.0508 -107.0780 61° Northeast 518 596 39,000 -50 Level Denver Center
Tue 01:31:15 PM 40.1203 -106.9110 61° Northeast 525 604 38,900  Descending Denver Center
Tue 01:32:15 PM 40.1917 -106.7450 60° Northeast 519 597 39,000  Climbing Denver Center
Tue 01:33:15 PM 40.2669 -106.5770 62° Northeast 526 605 38,900 -50 Descending Denver Center
Tue 01:34:14 PM 40.3358 -106.4050 62° Northeast 526 605 38,900  Level Denver Center
Tue 01:35:14 PM 40.4044 -106.2330 63° Northeast 526 605 38,900  Level Denver Center
Tue 01:36:15 PM 40.4708 -106.0640 67° East 526 605 38,900 50 Level Denver Center
Tue 01:37:15 PM 40.5303 -105.8830 69° East 526 605 39,000  Climbing Denver Center
Tue 01:38:16 PM 40.5775 -105.7210 70° East 526 605 38,900  Descending Denver Center
Tue 01:39:14 PM 40.6283 -105.5350 70° East 532 612 39,000  Climbing Denver Center
Tue 01:40:16 PM 40.6808 -105.3480 69° East 538 619 38,900 -49 Descending Denver Center
Tue 01:41:17 PM 40.7350 -105.1580 70° East 544 626 38,900  Level Denver Center
Tue 01:42:14 PM 40.7869 -104.9710 70° East 551 634 38,900  Level Denver Center
Tue 01:43:14 PM 40.8425 -104.7630 70° East 551 634 38,900  Level Denver Center
Tue 01:44:15 PM 40.8939 -104.5780 71° East 545 627 38,900  Level Denver Center
Tue 01:45:14 PM 40.9408 -104.3950 71° East 534 615 38,900 50 Level Denver Center
Tue 01:46:14 PM 40.9894 -104.2090 72° East 528 608 39,000  Climbing Denver Center
Tue 01:47:16 PM 41.0336 -104.0260 71° East 528 608 38,900  Descending Denver Center
Tue 01:48:14 PM 41.0817 -103.8400 71° East 528 608 39,000  Climbing Denver Center
Tue 01:49:17 PM 41.1256 -103.6700 71° East 533 613 38,900 -50 Descending Denver Center
Tue 01:50:14 PM 41.1808 -103.4610 72° East 538 619 38,900 51 Level Denver Center
Tue 01:51:15 PM 41.2278 -103.2710 72° East 544 626 39,000 50 Climbing Denver Center
Tue 01:52:14 PM 41.2744 -103.0800 71° East 544 626 39,000 -50 Level Denver Center
Tue 01:53:14 PM 41.3194 -102.9070 71° East 544 626 38,900  Descending Denver Center
Tue 01:54:15 PM 41.3731 -102.6960 73° East 555 639 39,000 49 Climbing Denver Center
Tue 01:55:16 PM 41.4169 -102.5050 71° East 550 633 39,000  Level Denver Center
Tue 01:56:17 PM 41.4664 -102.3110 72° East 545 627 39,000  Level Denver Center
Tue 01:57:15 PM 41.5078 -102.1360 71° East 545 627 39,000  Level Denver Center
Tue 01:58:15 PM 41.5550 -101.9470 73° East 550 633 39,000 -50 Level Denver Center
Tue 01:59:16 PM 41.6047 -101.7330 73° East 545 627 38,900  Descending Denver Center
Tue 02:00:14 PM 41.6489 -101.5410 72° East 550 633 39,000 50 Climbing Denver Center
Tue 02:01:15 PM 41.6947 -101.3480 74° East 550 633 39,000 -49 Level Denver Center
Tue 02:02:16 PM 41.7344 -101.1660 72° East 550 633 38,900 -49 Descending Denver Center
Tue 02:03:17 PM 41.7853 -100.9560 72° East 550 633 38,900 50 Level Denver Center
Tue 02:04:15 PM 41.8319 -100.7570 73° East 550 633 39,000  Climbing Denver Center
Tue 02:05:14 PM 41.8761 -100.5580 74° East 550 633 38,900 -50 Descending Denver Center
Tue 02:06:15 PM 41.9147 -100.3780 74° East 550 633 38,900  Level Denver Center
Tue 02:07:15 PM 41.9633 -100.1560 74° East 550 633 38,900  Level Denver Center
Tue 02:08:14 PM 42.0067 -99.9558 80° East 556 640 38,900 50 Level Denver Center
Tue 02:09:14 PM 42.0325 -99.7517 79° East 551 634 39,000  Climbing Denver Center
Tue 02:10:14 PM 42.0619 -99.5442 81° East 561 646 38,900  Descending Denver Center
Tue 02:12:18 PM 42.1125 -99.1231 81° East 549 632 39,000 33 Climbing Minneapolis Center
Tue 02:13:17 PM 42.1372 -98.9211 80° East 549 632 39,000  Level Minneapolis Center
Tue 02:14:17 PM 42.1639 -98.7164 80° East 554 638 39,000  Level Minneapolis Center
Tue 02:15:17 PM 42.1900 -98.5169 80° East 554 638 39,000  Level Minneapolis Center
Tue 02:16:18 PM 42.2158 -98.3117 81° East 549 632 39,000 -50 Level Minneapolis Center
Tue 02:17:17 PM 42.2394 -98.1061 81° East 554 638 38,900  Descending Minneapolis Center
Tue 02:18:17 PM 42.2625 -97.9033 81° East 554 638 39,000 50 Climbing Minneapolis Center
Tue 02:19:17 PM 42.2872 -97.7003 82° East 554 638 39,000  Level Minneapolis Center
Tue 02:20:17 PM 42.3097 -97.4914 82° East 554 638 39,000 -50 Level Minneapolis Center
Tue 02:21:17 PM 42.3314 -97.2881 82° East 554 638 38,900  Descending Minneapolis Center
Tue 02:22:17 PM 42.3531 -97.0844 80° East 554 638 39,000 50 Climbing Minneapolis Center
Tue 02:23:17 PM 42.3783 -96.8808 84° East 554 638 39,000 -50 Level Minneapolis Center
Tue 02:24:17 PM 42.3922 -96.6936 81° East 554 638 38,900 -50 Descending Minneapolis Center
Tue 02:25:17 PM 42.4150 -96.4869 83° East 554 638 38,900  Level Minneapolis Center
Tue 02:26:17 PM 42.4356 -96.2631 83° East 548 631 38,900  Level Minneapolis Center
Tue 02:27:17 PM 42.4550 -96.0614 82° East 548 631 38,900  Level Minneapolis Center
Tue 02:28:17 PM 42.4761 -95.8628 83° East 539 620 38,900  Level Minneapolis Center
Tue 02:29:17 PM 42.4950 -95.6581 83° East 539 620 38,900  Level Minneapolis Center
Tue 02:30:17 PM 42.5136 -95.4533 83° East 539 620 38,900  Level Minneapolis Center
Tue 02:31:17 PM 42.5317 -95.2514 82° East 539 620 38,900  Level Minneapolis Center
Tue 02:32:18 PM 42.5514 -95.0464 83° East 539 620 38,900  Level Minneapolis Center
Tue 02:33:19 PM 42.5689 -94.8414 83° East 539 620 38,900  Level Minneapolis Center
Tue 02:34:30 PM 42.5906 -94.5994 84° East 539 620 38,900  Level Minneapolis Center
Tue 02:35:29 PM 42.6047 -94.4167 88° East 539 620 38,900  Level Minneapolis Center
Tue 02:36:29 PM 42.6106 -94.2139 95° East 539 620 38,900  Level Minneapolis Center
Tue 02:37:29 PM 42.5972 -94.0136 93° East 534 615 38,900  Level Minneapolis Center
Tue 02:38:29 PM 42.5897 -93.8106 94° East 534 615 38,900  Level Minneapolis Center
Tue 02:40:55 PM 42.5639 -93.3111 94° East 521 600 38,900  Level Chicago Center
Tue 02:41:55 PM 42.5539 -93.1103 94° East 521 600 38,900  Level Chicago Center
Tue 02:42:55 PM 42.5436 -92.9122 95° East 526 605 38,900  Level Chicago Center
Tue 02:43:55 PM 42.5308 -92.7114 94° East 521 600 38,900  Level Chicago Center
Tue 02:44:55 PM 42.5197 -92.5136 94° East 526 605 38,900  Level Chicago Center
Tue 02:45:55 PM 42.5083 -92.3131 94° East 521 600 38,900  Level Chicago Center
Tue 02:46:55 PM 42.4986 -92.1183 95° East 526 605 38,900  Level Chicago Center
Tue 02:47:55 PM 42.4867 -91.9178 95° East 526 605 38,900  Level Chicago Center
Tue 02:48:55 PM 42.4742 -91.7203 96° East 526 605 38,900  Level Chicago Center
Tue 02:49:55 PM 42.4611 -91.5394 95° East 526 605 38,900  Level Chicago Center
Tue 02:50:55 PM 42.4478 -91.3450 94° East 526 605 38,900  Level Chicago Center
Tue 02:51:55 PM 42.4367 -91.1475 95° East 526 605 38,900  Level Chicago Center
Tue 02:52:55 PM 42.4228 -90.9531 96° East 521 600 38,900  Level Chicago Center
Tue 02:53:55 PM 42.4086 -90.7558 95° East 521 600 38,900  Level Chicago Center
Tue 02:54:55 PM 42.3961 -90.5617 94° East 521 600 38,900  Level Chicago Center
Tue 02:55:55 PM 42.3856 -90.3703 94° East 521 600 38,900  Level Chicago Center
Tue 02:56:55 PM 42.3747 -90.1508 94° East 521 600 38,900  Level Chicago Center
Tue 02:57:55 PM 42.3636 -89.9597 96° East 521 600 38,900  Level Chicago Center
Tue 02:58:55 PM 42.3497 -89.7908 95° East 515 593 38,900  Level Chicago Center
Tue 02:59:55 PM 42.3397 -89.6364 95° East 515 593 38,900  Level Chicago Center
Tue 03:00:55 PM 42.3256 -89.4033 95° East 521 600 38,900  Level Chicago Center
Tue 03:01:55 PM 42.3128 -89.2150 96° East 516 594 38,900  Level Chicago Center
Tue 03:02:55 PM 42.2978 -89.0186 94° East 516 594 38,900  Level Chicago Center
Tue 03:03:55 PM 42.2867 -88.8167 95° East 516 594 38,900  Level Chicago Center
Tue 03:04:55 PM 42.2731 -88.6258 95° East 502 578 38,900  Level Chicago Center
Tue 03:05:55 PM 42.2592 -88.4325 95° East 502 578 38,900  Level Chicago Center
Tue 03:06:55 PM 42.2472 -88.2419 97° East 502 578 38,900  Level Chicago Center
Tue 03:07:55 PM 42.2306 -88.0514 87° East 508 585 38,900  Level Chicago Center
Tue 03:08:55 PM 42.2386 -87.8606 80° East 508 585 38,900  Level Chicago Center
Tue 03:09:55 PM 42.2575 -87.7086 78° East 516 594 38,900  Level Chicago Center
Tue 03:10:55 PM 42.2917 -87.4861 79° East 511 588 38,900  Level Chicago Center
Tue 03:11:55 PM 42.3175 -87.2972 80° East 505 581 38,900  Level Chicago Center
Tue 03:12:55 PM 42.3411 -87.1053 81° East 505 581 38,900  Level Chicago Center
Tue 03:13:55 PM 42.3642 -86.9161 80° East 505 581 38,900  Level Chicago Center
Tue 03:14:55 PM 42.3894 -86.7269 79° East 505 581 38,900  Level Chicago Center
Tue 03:15:55 PM 42.4161 -86.5344 81° East 505 581 38,900  Level Chicago Center
Tue 03:16:55 PM 42.4383 -86.3450 81° East 505 581 38,900  Level Chicago Center
Tue 03:17:55 PM 42.4622 -86.1497 89° East 505 581 38,900  Level Chicago Center
Tue 03:18:55 PM 42.4650 -85.9553 91° East 511 588 38,900  Level Chicago Center
Tue 03:19:55 PM 42.4611 -85.7556 92° East 516 594 38,900  Level Chicago Center
Tue 03:22:15 PM 42.4506 -85.3086 91° East 537 618 38,900  Level Cleveland Center
Tue 03:23:15 PM 42.4483 -85.1058 93° East 537 618 38,900  Level Cleveland Center
Tue 03:24:15 PM 42.4414 -84.9056 92° East 537 618 38,900  Level Cleveland Center
Tue 03:25:15 PM 42.4367 -84.6997 91° East 537 618 38,900  Level Cleveland Center
Tue 03:26:15 PM 42.4331 -84.4994 92° East 537 618 38,900  Level Cleveland Center
Tue 03:27:15 PM 42.4272 -84.2967 92° East 537 618 38,900  Level Cleveland Center
Tue 03:28:15 PM 42.4211 -84.0936 91° East 537 618 38,900  Level Cleveland Center
Tue 03:29:15 PM 42.4172 -83.8739 93° East 537 618 38,900  Level Cleveland Center
Tue 03:30:15 PM 42.4103 -83.6739 93° East 537 618 38,900  Level Cleveland Center
Tue 03:31:15 PM 42.4031 -83.4739 92° East 537 618 38,900  Level Cleveland Center
Tue 03:32:15 PM 42.3975 -83.2656 92° East 542 624 38,900  Level Cleveland Center
Tue 03:33:16 PM 42.3914 -83.0797 93° East 542 624 38,900  Level Cleveland Center
Tue 03:34:15 PM 42.3831 -82.8769 92° East 547 629 38,900  Level Cleveland Center
Tue 03:35:15 PM 42.3767 -82.6686 93° East 547 629 38,900  Level Cleveland Center
Tue 03:36:15 PM 42.3697 -82.4633 93° East 547 629 38,900  Level Cleveland Center
Tue 03:37:15 PM 42.3608 -82.2383 94° East 553 636 38,900  Level Cleveland Center
Tue 03:38:15 PM 42.3508 -82.0553 93° East 548 631 38,900  Level Cleveland Center
Tue 03:39:16 PM 42.3428 -81.8472 94° East 554 638 38,900  Level Cleveland Center
Tue 03:40:15 PM 42.3325 -81.6336 94° East 560 644 38,900  Level Cleveland Center
Tue 03:41:15 PM 42.3217 -81.4283 93° East 552 635 38,900  Level Cleveland Center
Tue 03:42:16 PM 42.3125 -81.2150 94° East 562 647 38,900  Level Cleveland Center
Tue 03:43:15 PM 42.3011 -80.9875 94° East 557 641 38,900  Level Cleveland Center
Tue 03:44:15 PM 42.2892 -80.7853 93° East 551 634 38,900  Level Cleveland Center
Tue 03:45:16 PM 42.2808 -80.5858 95° East 546 628 38,900 50 Level Cleveland Center
Tue 03:46:15 PM 42.2683 -80.3894 94° East 530 610 39,000  Climbing Cleveland Center
Tue 03:47:15 PM 42.2575 -80.1933 95° East 525 604 38,900 -50 Descending Cleveland Center
Tue 03:48:16 PM 42.2439 -79.9914 94° East 537 618 38,900  Level Cleveland Center
Tue 03:49:15 PM 42.2325 -79.7894 95° East 537 618 38,900  Level Cleveland Center
Tue 03:50:15 PM 42.2203 -79.5878 95° East 537 618 38,900  Level Cleveland Center
Tue 03:51:15 PM 42.2058 -79.3806 96° East 542 624 38,900  Level Cleveland Center
Tue 03:52:15 PM 42.1911 -79.1792 104° East 542 624 38,900  Level Cleveland Center
Tue 03:53:15 PM 42.1553 -78.9922 109° East 530 610 38,900 50 Level Cleveland Center
Tue 03:54:16 PM 42.1089 -78.8086 108° East 516 594 39,000 50 Climbing Cleveland Center
Tue 03:55:15 PM 42.0642 -78.6253 109° East 516 594 39,000 -50 Level Cleveland Center
Tue 03:56:15 PM 42.0172 -78.4422 108° East 516 594 38,900 -50 Descending Cleveland Center
Tue 03:57:15 PM 41.9719 -78.2594 108° East 516 594 38,900  Level Cleveland Center
Tue 03:58:15 PM 41.9264 -78.0769 110° East 516 594 38,900  Level Cleveland Center
Tue 03:59:57 PM 41.8492 -77.7906 110° East 506 582 38,900 37 Level New York Center
Tue 04:00:58 PM 41.8014 -77.6131 109° East 507 583 39,000 50 Climbing New York Center
Tue 04:01:58 PM 41.7533 -77.4303 109° East 515 593 39,000 -50 Level New York Center
Tue 04:02:59 PM 41.7069 -77.2506 111° Southeast 515 593 38,900 -305 Descending New York Center
Tue 04:03:56 PM 41.6544 -77.0675 109° East 520 598 38,400 -610 Descending New York Center
Tue 04:04:57 PM 41.6078 -76.8828 111° Southeast 525 604 37,700 -836 Descending New York Center
Tue 04:05:58 PM 41.5567 -76.7008 110° East 525 604 36,700 -992 Descending New York Center
Tue 04:06:58 PM 41.5053 -76.5161 111° Southeast 525 604 35,700 -1,000 Descending New York Center
Tue 04:07:58 PM 41.4553 -76.3403 109° East 519 597 34,700 -1,017 Descending New York Center
Tue 04:08:56 PM 41.4075 -76.1592 111° Southeast 519 597 33,700 -1,119 Descending New York Center
Tue 04:09:56 PM 41.3533 -75.9697 111° Southeast 512 589 32,500 -1,400 Descending New York Center
Tue 04:10:56 PM 41.3064 -75.8058 111° Southeast 492 566 30,900 -1,770 Descending New York Center
Tue 04:11:58 PM 41.2589 -75.6450 114° Southeast 470 541 28,900 -1,950 Descending New York Center
Tue 04:12:56 PM 41.2067 -75.4922 114° Southeast 454 522 27,000 -1,916 Descending New York Center
Tue 04:13:57 PM 41.1564 -75.3456 112° Southeast 447 514 25,100 -1,785 Descending New York Center
Tue 04:14:57 PM 41.1119 -75.1992 117° Southeast 434 499 23,400 -1,041 Descending New York Center
Tue 04:15:58 PM 41.0606 -75.0639 114° Southeast 423 487 23,000 -198 Descending New York Center
Tue 04:16:58 PM 41.0136 -74.9261 104° East 417 480 23,000  Level New York Center
Tue 04:17:56 PM 40.9853 -74.7761 81° East 412 474 23,000  Level New York Center
Tue 04:18:56 PM 41.0028 -74.6286 61° Northeast 404 465 23,000  Level New York Center
Tue 04:19:57 PM 41.0569 -74.4969 52° Northeast 388 447 23,000 -248 Level New York Center
Tue 04:20:57 PM 41.1275 -74.3767 52° Northeast 395 455 22,500 -744 Descending New York Center
Tue 04:21:58 PM 41.1953 -74.2619 95° East 395 455 21,500 -1,140 Descending New York Center
Tue 04:22:58 PM 41.1850 -74.1208 145° Southeast 357 411 20,200 -1,250 Descending New York Center
Tue 04:23:58 PM 41.1078 -74.0481 187° South 286 329 19,000 -610 Descending New York Center
Tue 04:24:56 PM 41.0283 -74.0608 207° Southwest 251 289 19,000  Level New York Center
Tue 04:25:57 PM 40.9603 -74.1069 207° Southwest 247 284 19,000  Level New York Center
Tue 04:26:57 PM 40.8989 -74.1478 252° West 252 290 19,000  Level New York Center
Tue 04:27:58 PM 40.8775 -74.2344 260° West 229 264 19,000  Level New York Center
Tue 04:28:58 PM 40.8667 -74.3189 266° West 229 264 19,000  Level New York Center
Tue 04:29:56 PM 40.8619 -74.4067 318° Northwest 240 276 19,000  Level New York Center
Tue 04:30:56 PM 40.9122 -74.4669 22° Northeast 218 251 19,000  Level New York Center
Tue 04:31:57 PM 40.9883 -74.4269 76° East 198 228 19,000  Level New York Center
Tue 04:32:57 PM 41.0058 -74.3317 121° Southeast 221 254 19,000  Level New York Center
Tue 04:33:58 PM 40.9569 -74.2247 125° Southeast 248 285 19,000  Level New York Center
Tue 04:34:57 PM 40.9056 -74.1261 161° South 285 328 19,000  Level New York Center
Tue 04:35:57 PM 40.8317 -74.0922 237° Southwest 283 326 19,000  Level New York Center
Tue 04:36:58 PM 40.7942 -74.1672 297° West 204 235 19,000  Level New York Center
Tue 04:37:58 PM 40.8269 -74.2511 302° West 159 183 19,000  Level New York Center
Tue 04:38:56 PM 40.8642 -74.3297 306° West 201 231 19,000  Level New York Center
Tue 04:39:57 PM 40.9056 -74.4061 351° North 236 272 19,000  Level New York Center
Tue 04:40:57 PM 40.9761 -74.4208 75° East 238 274 19,000  Level New York Center
Tue 04:41:58 PM 40.9981 -74.3122 123° Southeast 181 208 19,000  Level New York Center
Tue 04:42:56 PM 40.9489 -74.2106 126° Southeast 209 241 19,000  Level New York Center
Tue 04:43:56 PM 40.8956 -74.1147 173° South 253 291 19,000  Level New York Center
Tue 04:44:56 PM 40.8231 -74.1028 252° West 260 299 19,000  Level New York Center
Tue 04:45:57 PM 40.8019 -74.1867 299° West 156 180 19,000  Level New York Center
Tue 04:46:57 PM 40.8389 -74.2736 307° West 161 185 19,000  Level New York Center
Tue 04:47:58 PM 40.8803 -74.3472 310° West 207 238 19,000  Level New York Center
Tue 04:48:58 PM 40.9261 -74.4183 20° North 238 274 19,000  Level New York Center
Tue 04:49:49 PM 41.0000 -74.3833 101° East 323 372 19,000  Level New York TRACON
Tue 04:50:49 PM 40.9833 -74.2667 120° Southeast 349 402 19,000  Level New York TRACON
Tue 04:51:50 PM 40.9333 -74.1500 143° Southeast 363 418 19,000 -393 Level New York TRACON
Tue 04:52:51 PM 40.8500 -74.0667 143° Southeast 351 404 18,200 -1,140 Descending New York TRACON
Tue 04:53:51 PM 40.7667 -73.9833 143° Southeast 345 397 16,700 -1,461 Descending New York TRACON
Tue 04:54:46 PM 40.7000 -73.9167 163° South 340 391 15,400 -1,409 Descending New York TRACON
Tue 04:55:46 PM 40.6167 -73.8833 163° South 340 391 14,000 -992 Descending New York TRACON
Tue 04:56:47 PM 40.5333 -73.8500 111° Southeast 336 387 13,400 -590 Descending New York TRACON
Tue 04:57:48 PM 40.5000 -73.7333 101° East 347 399 12,800 -793 Descending New York TRACON
Tue 04:58:48 PM 40.4833 -73.6167 57° Northeast 346 398 11,800 -1,385 Descending New York TRACON
Tue 04:59:58 PM 40.5297 -73.5233 31° Northeast 290 334 9,800 -1,953 Descending New York Center
Tue 05:00:57 PM 40.6017 -73.4661 25° Northeast 268 308 7,600 -1,714 Descending New York Center
Tue 05:01:50 PM 40.6833 -73.4167 11° North 280 322 6,600 -956 Descending New York TRACON
Tue 05:02:50 PM 40.7500 -73.4000 288° West 236 272 5,800 -1,140 Descending New York TRACON
Tue 05:03:51 PM 40.7667 -73.4667 303° West 194 223 4,300 -1,289 Descending New York TRACON
Tue 05:04:51 PM 40.8000 -73.5333 270° West 193 222 3,200 -942 Descending New York TRACON
Tue 05:05:52 PM 40.8000 -73.6000 237° Southwest 202 232 2,400 -541 Descending New York TRACON
Tue 05:06:53 PM 40.7667 -73.6667 207° Southwest 197 227 2,100 -246 Descending New York TRACON
Tue 05:07:54 PM 40.7167 -73.7000 217° Southwest 211 243 1,900 -590 Descending New York TRACON
Tue 05:08:55 PM 40.6833 -73.7333 180° South 143 165 900 -639 Descending New York TRACON
Tue 05:09:56 PM 40.6333 -73.7333 123° Southeast 155 178 600 148 Descending New York TRACON
Tue 05:10:57 PM 40.6167 -73.7000 303° West 182 209 1,200 -99 Climbing New York TRACON
Tue 05:11:57 PM 40.6333 -73.7333 303° West 117 135 400 -800 Descending New York TRACON

Login

Don't have an account? Register now (free) for customized features, flight alerts, and more!